Time;durP1;ratioP1;P1;durP2;ratioP2;P2;SDS_P1;SDS_P2;PMS_P1;PMS_P2;Temp;Humidity;BMP_temperature;BMP_pressure;BME280_temperature;BME280_humidity;BME280_pressure;Samples;Min_cycle;Max_cycle;Signal;HPM_P1;HPM_P2
2021/12/24 00:01:11;;;;;;;10.82;7.30;;;;;;;6.17;100.00;97607.59;10449066;28;20075;-78
2021/12/24 00:06:14;;;;;;;11.57;6.72;;;;;;;6.16;100.00;97601.47;10457449;28;20116;-77
2021/12/24 00:11:16;;;;;;;15.18;8.38;;;;;;;6.22;100.00;97586.91;10430633;28;20067;-79
2021/12/24 00:37:08;;;;;;;10.40;6.50;;;;;;;6.53;100.00;97552.13;10445590;28;20079;-77
2021/12/24 00:42:11;;;;;;;11.48;7.28;;;;;;;6.56;100.00;97548.81;10436814;28;20122;-76
2021/12/24 00:47:12;;;;;;;10.15;6.90;;;;;;;6.60;100.00;97537.56;10445228;28;20522;-77
2021/12/24 00:52:33;;;;;;;10.45;6.57;;;;;;;6.74;100.00;97538.16;10457037;28;20079;-80
2021/12/24 00:57:37;;;;;;;10.18;6.72;;;;;;;6.84;100.00;97540.50;10436953;28;20407;-77
2021/12/24 01:02:38;;;;;;;11.05;6.80;;;;;;;6.79;100.00;97548.69;10463595;28;20392;-79
2021/12/24 01:07:41;;;;;;;10.17;6.60;;;;;;;6.83;100.00;97553.03;10467868;28;20060;-78
2021/12/24 01:12:47;;;;;;;12.98;7.00;;;;;;;6.79;100.00;97559.34;10454968;28;20084;-78
2021/12/24 01:18:20;;;;;;;10.57;6.75;;;;;;;6.68;100.00;97568.78;10436159;28;20060;-78
2021/12/24 01:39:12;;;;;;;9.32;6.15;;;;;;;6.82;100.00;97572.03;10434247;28;20136;-80
2021/12/24 01:44:04;;;;;;;12.07;7.10;;;;;;;6.74;100.00;97581.59;10427210;28;20140;-78
2021/12/24 01:49:09;;;;;;;10.07;7.40;;;;;;;6.78;100.00;97579.13;10445521;28;20057;-78
2021/12/24 01:54:11;;;;;;;9.68;6.68;;;;;;;6.73;100.00;97565.94;10429395;28;20057;-77
2021/12/24 01:59:13;;;;;;;12.18;6.55;;;;;;;6.76;100.00;97560.72;10460226;28;20033;-78
2021/12/24 02:04:14;;;;;;;11.05;7.05;;;;;;;6.91;100.00;97553.34;10425169;28;20053;-79
2021/12/24 02:09:14;;;;;;;10.55;6.70;;;;;;;6.84;100.00;97540.50;10421643;28;20064;-81
2021/12/24 02:14:21;;;;;;;9.40;6.85;;;;;;;6.74;100.00;97540.81;10442515;28;20542;-78
2021/12/24 02:30:08;;;;;;;9.48;6.30;;;;;;;6.84;100.00;97522.59;10448228;28;20057;-78
2021/12/24 02:35:10;;;;;;;10.35;5.68;;;;;;;6.93;100.00;97519.91;10436938;28;20693;-78
2021/12/24 02:40:11;;;;;;;9.15;5.90;;;;;;;6.83;100.00;97510.38;10432987;28;20059;-77
2021/12/24 02:45:13;;;;;;;9.73;5.75;;;;;;;7.00;100.00;97498.09;10429776;28;20049;-77
2021/12/24 02:55:19;;;;;;;7.80;5.50;;;;;;;7.03;100.00;97484.91;10433729;28;20053;-78
2021/12/24 03:00:26;;;;;;;9.23;5.10;;;;;;;7.12;100.00;97469.63;10451420;28;20053;-79
2021/12/24 03:05:29;;;;;;;8.75;5.50;;;;;;;7.15;100.00;97478.13;10407583;28;20129;-79
2021/12/24 03:10:33;;;;;;;7.75;5.53;;;;;;;7.22;100.00;97468.50;10441978;28;20045;-78
2021/12/24 03:15:34;;;;;;;7.00;5.43;;;;;;;7.32;100.00;97476.19;10447324;28;20049;-81
2021/12/24 03:20:35;;;;;;;6.85;5.00;;;;;;;7.17;100.00;97467.91;10454574;28;20052;-79
2021/12/24 03:25:37;;;;;;;8.05;5.43;;;;;;;7.09;100.00;97467.63;10442661;28;20072;-80
2021/12/24 03:30:41;;;;;;;6.73;5.20;;;;;;;7.33;100.00;97460.94;10458535;28;20108;-80
2021/12/24 03:35:42;;;;;;;7.53;5.10;;;;;;;7.39;100.00;97449.75;10435702;28;20303;-79
2021/12/24 03:40:42;;;;;;;8.95;5.05;;;;;;;7.48;100.00;97433.69;10448823;28;20037;-77
2021/12/24 03:51:03;;;;;;;8.25;5.57;;;;;;;7.47;100.00;97442.03;10424159;28;20083;-78
2021/12/24 03:56:06;;;;;;;9.88;5.93;;;;;;;7.46;100.00;97433.22;10425136;28;20057;-78
2021/12/24 04:01:08;;;;;;;8.60;5.85;;;;;;;7.46;100.00;97429.78;10409015;28;20098;-78
2021/12/24 04:06:30;;;;;;;7.18;5.18;;;;;;;7.50;100.00;97431.50;10438247;28;20057;-78
2021/12/24 04:11:49;;;;;;;7.65;5.78;;;;;;;7.49;100.00;97421.91;10442864;28;20163;-78
2021/12/24 04:16:50;;;;;;;8.23;5.72;;;;;;;7.44;100.00;97419.44;10427687;28;20488;-77
2021/12/24 04:27:16;;;;;;;10.40;6.15;;;;;;;7.34;100.00;97428.59;10432263;28;20059;-77
2021/12/24 04:32:22;;;;;;;10.13;6.78;;;;;;;7.37;100.00;97416.47;10423390;28;20135;-78
2021/12/24 04:38:08;;;;;;;10.18;6.35;;;;;;;7.45;100.00;97402.31;10446686;28;20053;-76
2021/12/24 05:04:51;;;;;;;9.00;6.37;;;;;;;7.42;100.00;97429.66;10479417;28;20052;-79
2021/12/24 05:09:56;;;;;;;8.32;6.00;;;;;;;7.44;100.00;97426.66;10439350;28;20296;-79
2021/12/24 05:14:59;;;;;;;8.13;5.85;;;;;;;7.49;100.00;97435.25;10397408;28;20049;-79
2021/12/24 05:25:53;;;;;;;7.53;5.72;;;;;;;7.45;100.00;97437.00;10458343;28;20549;-79
2021/12/24 05:30:53;;;;;;;9.13;6.15;;;;;;;7.39;100.00;97451.63;10430630;28;20053;-78
2021/12/24 05:35:54;;;;;;;9.13;6.47;;;;;;;7.36;100.00;97447.72;10414626;28;20053;-79
2021/12/24 05:40:55;;;;;;;8.50;6.40;;;;;;;7.29;100.00;97449.34;10436204;28;20057;-79
2021/12/24 05:45:56;;;;;;;10.50;6.93;;;;;;;7.37;100.00;97440.50;10418268;28;20049;-79
2021/12/24 05:51:04;;;;;;;9.50;7.18;;;;;;;7.36;100.00;97457.63;10425771;28;20275;-80
2021/12/24 05:56:20;;;;;;;10.73;6.85;;;;;;;7.32;100.00;97456.72;10433009;28;20143;-77
2021/12/24 06:01:26;;;;;;;9.35;6.85;;;;;;;7.35;100.00;97448.84;10448448;28;20040;-80
2021/12/24 06:06:26;;;;;;;9.98;7.35;;;;;;;7.46;100.00;97464.47;10435490;28;20064;-79
2021/12/24 06:11:29;;;;;;;10.73;7.13;;;;;;;7.36;100.00;97473.63;10406553;28;20153;-80
2021/12/24 06:16:29;;;;;;;15.75;7.38;;;;;;;7.33;100.00;97471.63;10416049;28;20053;-79
2021/12/24 06:21:30;;;;;;;10.20;7.03;;;;;;;7.38;100.00;97482.88;10411361;28;20058;-79
2021/12/24 06:26:31;;;;;;;10.15;7.40;;;;;;;7.48;100.00;97488.97;10410796;28;20091;-78
2021/12/24 06:31:31;;;;;;;10.73;7.97;;;;;;;7.44;100.00;97480.03;10406121;28;20135;-78
2021/12/24 06:36:36;;;;;;;10.40;7.55;;;;;;;7.40;100.00;97480.66;10435534;28;20056;-78
2021/12/24 06:41:39;;;;;;;13.73;8.32;;;;;;;7.46;100.00;97493.84;10447047;28;20057;-78
2021/12/24 06:46:44;;;;;;;11.27;8.13;;;;;;;7.40;100.00;97486.00;10449198;28;20057;-78
2021/12/24 06:51:45;;;;;;;12.43;8.27;;;;;;;7.41;100.00;97500.94;10420226;28;20060;-80
2021/12/24 06:56:45;;;;;;;12.85;8.13;;;;;;;7.37;100.00;97486.66;10434216;28;20495;-78
2021/12/24 07:01:51;;;;;;;13.45;9.40;;;;;;;7.26;100.00;97500.69;10430565;28;20040;-80
2021/12/24 07:06:52;;;;;;;13.57;8.38;;;;;;;7.29;100.00;97494.69;10452403;28;20060;-78
2021/12/24 07:11:56;;;;;;;13.98;9.13;;;;;;;7.38;100.00;97495.44;10433257;28;20532;-80
2021/12/24 07:16:56;;;;;;;13.77;8.68;;;;;;;7.29;100.00;97497.38;10453381;28;20491;-78
2021/12/24 07:21:57;;;;;;;12.57;8.70;;;;;;;7.28;100.00;97506.50;10459209;28;20045;-81
2021/12/24 07:27:01;;;;;;;14.43;9.73;;;;;;;7.30;100.00;97514.94;10453399;28;20052;-79
2021/12/24 07:32:03;;;;;;;;;;;;;;;7.31;100.00;97495.16;10436575;28;20044;-81
2021/12/24 07:37:04;;;;;;;15.50;9.75;;;;;;;7.29;100.00;97490.16;10454183;28;19921;-78
2021/12/24 07:42:05;;;;;;;14.23;9.30;;;;;;;7.33;100.00;97495.66;10485703;28;20067;-80
2021/12/24 07:47:16;;;;;;;;;;;;;;;7.25;100.00;97515.16;10462055;28;20088;-80
2021/12/24 07:52:17;;;;;;;13.20;9.15;;;;;;;7.24;100.00;97511.69;10411363;28;19920;-80
2021/12/24 07:57:22;;;;;;;15.57;9.73;;;;;;;7.23;100.00;97522.69;10433370;28;20060;-79
2021/12/24 08:02:26;;;;;;;13.63;9.82;;;;;;;7.13;100.00;97521.13;10462270;28;20111;-77
2021/12/24 08:07:27;;;;;;;;;;;;;;;7.07;100.00;97528.53;10463852;28;20045;-78
2021/12/24 08:12:28;;;;;;;14.68;9.88;;;;;;;7.08;100.00;97511.41;10426965;28;19978;-78
2021/12/24 08:17:30;;;;;;;15.20;9.90;;;;;;;7.08;100.00;97524.75;10451601;28;20037;-80
2021/12/24 08:22:39;;;;;;;18.80;10.20;;;;;;;7.05;100.00;97530.75;10466998;28;20052;-85
2021/12/24 08:27:40;;;;;;;16.90;11.00;;;;;;;6.91;100.00;97550.69;10426988;28;20060;-80
2021/12/24 08:32:42;;;;;;;19.63;11.55;;;;;;;6.77;100.00;97549.00;10455611;28;20056;-81
2021/12/24 08:37:44;;;;;;;16.60;11.35;;;;;;;6.83;100.00;97538.94;10467435;28;20057;-80
2021/12/24 08:42:48;;;;;;;18.70;11.77;;;;;;;6.75;100.00;97531.72;10429775;28;20032;-78
2021/12/24 08:48:07;;;;;;;17.73;11.60;;;;;;;6.72;100.00;97516.34;10390166;28;20088;-79
2021/12/24 08:53:12;;;;;;;18.58;12.18;;;;;;;6.80;100.00;97520.91;10454199;28;20053;-83
2021/12/24 08:58:13;;;;;;;17.30;11.70;;;;;;;6.74;100.00;97530.94;10438428;28;20095;-81
2021/12/24 09:03:13;;;;;;;18.92;11.73;;;;;;;6.77;100.00;97532.22;10464424;28;20099;-79
2021/12/24 09:08:15;;;;;;;17.08;10.93;;;;;;;6.81;100.00;97511.78;10463391;28;20045;-82
2021/12/24 09:13:15;;;;;;;17.08;11.82;;;;;;;6.89;100.00;97511.00;10461731;28;20048;-79
2021/12/24 09:18:19;;;;;;;17.77;11.05;;;;;;;6.83;100.00;97512.25;10455729;28;20821;-80
2021/12/24 09:23:21;;;;;;;15.98;10.55;;;;;;;6.81;100.00;97503.78;10461762;28;20053;-79
2021/12/24 09:28:23;;;;;;;16.58;10.90;;;;;;;6.84;100.00;97500.47;10465642;28;20190;-80
2021/12/24 09:33:24;;;;;;;18.48;11.27;;;;;;;6.90;100.00;97493.09;10469211;28;20091;-83
2021/12/24 09:38:25;;;;;;;17.95;11.10;;;;;;;7.00;100.00;97484.75;10487857;28;20057;-82
2021/12/24 09:43:45;;;;;;;16.80;10.40;;;;;;;6.98;100.00;97479.75;10474033;28;20045;-78
2021/12/24 09:48:46;;;;;;;16.63;11.05;;;;;;;7.04;100.00;97467.81;10458630;28;20060;-81
2021/12/24 09:53:51;;;;;;;18.80;11.85;;;;;;;7.13;100.00;97470.44;10492915;28;20046;-81
2021/12/24 09:58:57;;;;;;;18.23;11.60;;;;;;;7.23;100.00;97480.78;10447740;28;20068;-79
2021/12/24 10:04:37;;;;;;;16.45;10.93;;;;;;;7.24;100.00;97485.00;10467752;28;20122;-79
2021/12/24 10:09:49;;;;;;;20.57;11.83;;;;;;;7.16;100.00;97496.50;10449300;28;20064;-80
2021/12/24 10:14:51;;;;;;;20.15;11.50;;;;;;;7.11;100.00;97491.31;10450751;28;20136;-83
2021/12/24 10:19:54;;;;;;;18.42;10.73;;;;;;;7.11;100.00;97502.78;10433012;28;20080;-80
2021/12/24 10:25:05;;;;;;;20.55;11.25;;;;;;;7.16;100.00;97493.03;10479649;28;20045;-79
2021/12/24 10:30:27;;;;;;;17.60;11.32;;;;;;;6.99;100.00;97489.31;10476681;28;20075;-79
2021/12/24 10:36:01;;;;;;;20.05;12.73;;;;;;;6.97;100.00;97498.75;10448641;28;20057;-79
2021/12/24 10:41:06;;;;;;;20.80;11.83;;;;;;;7.00;100.00;97484.75;10453570;28;20045;-78
2021/12/24 10:46:11;;;;;;;18.38;11.32;;;;;;;7.06;100.00;97472.81;10422482;28;20060;-78
2021/12/24 10:51:21;;;;;;;16.30;10.30;;;;;;;7.26;100.00;97463.31;10456553;28;20061;-76
2021/12/24 10:56:25;;;;;;;19.00;11.07;;;;;;;7.49;100.00;97450.47;10449780;28;20101;-78
2021/12/24 11:01:28;;;;;;;21.52;11.23;;;;;;;7.46;100.00;97445.78;10420267;28;20069;-77
2021/12/24 11:06:30;;;;;;;17.00;11.25;;;;;;;7.46;100.00;97440.47;10453551;28;20408;-76
2021/12/24 11:11:35;;;;;;;16.92;11.20;;;;;;;7.63;100.00;97432.34;10450515;28;20049;-76
2021/12/24 11:16:45;;;;;;;19.17;10.98;;;;;;;7.72;100.00;97421.63;10459545;28;20135;-76
2021/12/24 11:22:02;;;;;;;17.27;10.20;;;;;;;7.73;100.00;97425.84;10456709;28;20056;-76
2021/12/24 11:27:03;;;;;;;18.00;10.65;;;;;;;7.68;100.00;97432.94;10431102;28;20049;-79
2021/12/24 11:32:05;;;;;;;16.45;10.57;;;;;;;7.70;100.00;97429.94;10457598;28;20139;-78
2021/12/24 11:37:07;;;;;;;19.85;11.25;;;;;;;7.68;100.00;97419.59;10450872;28;20480;-76
2021/12/24 11:42:10;;;;;;;20.08;11.68;;;;;;;7.75;100.00;97429.75;10455523;28;20124;-76
2021/12/24 11:47:11;;;;;;;;;;;;;;;7.63;100.00;97438.47;10421582;28;20052;-79
2021/12/24 11:52:12;;;;;;;31.75;16.23;;;;;;;7.30;100.00;97451.66;10414586;28;19939;-76
2021/12/24 11:57:20;;;;;;;21.02;12.80;;;;;;;7.30;100.00;97453.56;10443164;28;20107;-76
2021/12/24 12:02:36;;;;;;;19.88;11.68;;;;;;;7.29;100.00;97455.44;10448206;28;20056;-71
2021/12/24 12:07:37;;;;;;;17.85;12.70;;;;;;;7.24;100.00;97442.31;10470368;28;20041;-72
2021/12/24 12:12:40;;;;;;;20.60;12.20;;;;;;;7.19;100.00;97442.47;10437648;28;20072;-73
2021/12/24 12:17:51;;;;;;;;;;;;;;;7.07;100.00;97432.47;10442303;28;20057;-77
2021/12/24 12:22:57;;;;;;;21.77;12.38;;;;;;;7.09;100.00;97434.81;10460872;28;19936;-78
2021/12/24 12:28:06;;;;;;;18.42;11.38;;;;;;;7.10;100.00;97447.06;10451325;28;20049;-79
2021/12/24 12:33:34;;;;;;;18.90;11.77;;;;;;;7.18;100.00;97422.22;10473246;28;20056;-79
2021/12/24 12:38:44;;;;;;;19.30;11.25;;;;;;;7.07;100.00;97418.34;10476341;28;20153;-80
2021/12/24 12:43:50;;;;;;;19.08;11.80;;;;;;;7.11;100.00;97411.25;10478634;28;20056;-80
2021/12/24 12:48:54;;;;;;;17.23;11.80;;;;;;;7.12;100.00;97402.94;10475215;28;20049;-82
2021/12/24 12:54:00;;;;;;;20.45;11.27;;;;;;;7.13;100.00;97391.19;10462446;28;20049;-81
2021/12/24 12:59:03;;;;;;;17.02;11.70;;;;;;;7.08;100.00;97391.34;10431878;28;20076;-77
2021/12/24 13:04:06;;;;;;;17.35;11.80;;;;;;;7.16;100.00;97397.75;10455390;28;20049;-77
2021/12/24 13:09:21;;;;;;;18.85;12.05;;;;;;;7.17;100.00;97401.22;10423035;28;20049;-79
2021/12/24 13:14:26;;;;;;;20.63;11.55;;;;;;;7.17;100.00;97395.88;10459995;28;20041;-79
2021/12/24 13:19:33;;;;;;;20.13;12.77;;;;;;;7.23;100.00;97389.25;10481372;28;20053;-78
2021/12/24 13:24:36;;;;;;;18.02;12.70;;;;;;;7.24;100.00;97396.16;10450099;28;20064;-78
2021/12/24 13:29:37;;;;;;;20.52;13.20;;;;;;;7.20;100.00;97396.00;10416033;28;20042;-79
2021/12/24 13:34:38;;;;;;;19.17;12.05;;;;;;;7.21;100.00;97402.13;10435216;28;20045;-79
2021/12/24 13:40:09;;;;;;;20.83;12.75;;;;;;;7.09;100.00;97402.81;10443035;28;20143;-79
2021/12/24 13:45:09;;;;;;;20.52;12.90;;;;;;;6.93;100.00;97413.22;10461416;28;20057;-80
2021/12/24 13:55:25;;;;;;;23.25;13.35;;;;;;;6.75;100.00;97422.38;10485930;28;20048;-79
2021/12/24 14:00:30;;;;;;;27.80;15.30;;;;;;;6.74;100.00;97421.59;10458318;28;20061;-79
2021/12/24 14:05:31;;;;;;;23.63;14.27;;;;;;;6.76;100.00;97423.94;10470469;28;20075;-81
2021/12/24 14:10:32;;;;;;;25.00;15.40;;;;;;;6.76;100.00;97430.06;10474863;28;20099;-80
2021/12/24 14:15:46;;;;;;;25.05;15.75;;;;;;;6.59;100.00;97427.47;10480021;28;20511;-78
2021/12/24 14:21:44;;;;;;;22.20;15.35;;;;;;;6.68;100.00;97424.78;10458195;28;20079;-77
2021/12/24 14:26:20;;;;;;;26.67;15.38;;;;;;;6.68;100.00;97427.44;10448436;28;20068;-75
2021/12/24 14:31:20;;;;;;;25.90;15.70;;;;;;;6.56;100.00;97420.09;10466961;28;20061;-81
2021/12/24 14:36:22;;;;;;;23.98;13.57;;;;;;;6.51;100.00;97423.72;10448213;28;20545;-78
2021/12/24 14:41:23;;;;;;;27.40;15.50;;;;;;;6.35;100.00;97416.53;10426527;28;20045;-79
2021/12/24 14:46:25;;;;;;;26.85;15.88;;;;;;;6.29;100.00;97418.56;10450622;28;20059;-77
2021/12/24 14:51:29;;;;;;;26.67;15.02;;;;;;;6.21;100.00;97414.03;10420177;28;20052;-75
2021/12/24 14:56:36;;;;;;;28.10;16.52;;;;;;;6.17;100.00;97407.78;10380886;28;20061;-77
2021/12/24 15:01:42;;;;;;;25.98;15.65;;;;;;;6.24;100.00;97408.06;10439726;28;20056;-78
2021/12/24 15:06:49;;;;;;;24.83;15.50;;;;;;;6.23;100.00;97409.97;10449510;28;20052;-78
2021/12/24 15:11:50;;;;;;;25.05;16.58;;;;;;;6.24;100.00;97416.06;10449642;28;20729;-77
2021/12/24 15:16:55;;;;;;;28.27;16.50;;;;;;;6.24;100.00;97411.53;10440471;28;20048;-77
2021/12/24 15:21:57;;;;;;;26.83;15.85;;;;;;;6.23;100.00;97412.63;10434830;28;20053;-77
2021/12/24 15:26:58;;;;;;;23.58;15.57;;;;;;;6.23;100.00;97427.84;10446439;28;20043;-80
2021/12/24 15:31:59;;;;;;;25.13;15.73;;;;;;;6.17;100.00;97423.75;10437122;28;20053;-77
2021/12/24 15:37:00;;;;;;;22.70;14.35;;;;;;;6.23;100.00;97436.59;10424198;28;20059;-78
2021/12/24 15:42:00;;;;;;;18.63;13.02;;;;;;;6.19;100.00;97430.31;10444515;28;20064;-79
2021/12/24 15:47:01;;;;;;;24.58;16.35;;;;;;;6.20;100.00;97431.88;10424488;28;20064;-78
2021/12/24 15:52:02;;;;;;;25.88;16.27;;;;;;;6.06;100.00;97431.28;10428194;28;20179;-77
2021/12/24 15:57:04;;;;;;;24.10;15.75;;;;;;;6.08;100.00;97428.31;10429126;28;20140;-76
2021/12/24 16:02:07;;;;;;;19.20;12.90;;;;;;;5.97;100.00;97420.63;10424283;28;20088;-78
2021/12/24 16:07:09;;;;;;;23.48;13.68;;;;;;;6.00;100.00;97424.53;10444722;28;20595;-77
2021/12/24 16:12:11;;;;;;;28.40;16.50;;;;;;;5.91;100.00;97421.88;10417161;28;20737;-79
2021/12/24 16:17:11;;;;;;;23.70;15.55;;;;;;;5.90;100.00;97425.63;10448095;28;20534;-78
2021/12/24 16:22:12;;;;;;;27.42;16.38;;;;;;;5.86;100.00;97416.69;10442952;28;20190;-77
2021/12/24 16:27:13;;;;;;;25.42;15.70;;;;;;;5.83;100.00;97414.63;10448842;28;20053;-78
2021/12/24 16:32:13;;;;;;;22.90;15.30;;;;;;;5.72;100.00;97422.16;10461548;28;20064;-79
2021/12/24 16:37:15;;;;;;;29.67;17.38;;;;;;;5.80;100.00;97414.47;10476834;28;20789;-78
2021/12/24 16:42:17;;;;;;;33.00;17.40;;;;;;;5.80;100.00;97419.81;10460696;28;20059;-77
2021/12/24 16:47:18;;;;;;;27.27;17.05;;;;;;;5.87;100.00;97417.47;10446971;28;20476;-77
2021/12/24 16:52:19;;;;;;;24.48;15.40;;;;;;;5.87;100.00;97420.91;10433485;28;20061;-78
2021/12/24 16:57:19;;;;;;;27.65;17.90;;;;;;;5.87;100.00;97417.47;10432542;28;20140;-77
2021/12/24 17:02:20;;;;;;;27.30;17.60;;;;;;;5.85;100.00;97412.47;10450800;28;20059;-76
2021/12/24 17:07:20;;;;;;;31.75;17.85;;;;;;;5.89;100.00;97416.06;10418147;28;20110;-78
2021/12/24 17:12:21;;;;;;;29.05;17.38;;;;;;;5.84;100.00;97410.09;10462848;28;20468;-77
2021/12/24 17:17:27;;;;;;;27.65;17.88;;;;;;;5.85;100.00;97420.44;10450458;28;21317;-77
2021/12/24 17:22:28;;;;;;;28.45;17.77;;;;;;;5.83;100.00;97417.28;10422988;28;20428;-78
2021/12/24 17:27:29;;;;;;;33.42;20.75;;;;;;;5.83;100.00;97411.97;10435679;28;20111;-79
2021/12/24 17:32:29;;;;;;;30.80;17.90;;;;;;;5.67;100.00;97419.66;10449630;28;20052;-78
2021/12/24 17:37:30;;;;;;;28.48;17.55;;;;;;;5.65;100.00;97411.16;10423458;28;20057;-78
2021/12/24 17:42:34;;;;;;;23.88;16.52;;;;;;;5.68;100.00;97407.13;10462793;28;20045;-80
2021/12/24 17:47:35;;;;;;;31.27;18.92;;;;;;;5.63;100.00;97401.94;10429943;28;20060;-79
2021/12/24 17:52:38;;;;;;;30.92;19.30;;;;;;;5.63;100.00;97385.97;10456792;28;20606;-78
2021/12/24 17:57:39;;;;;;;25.73;17.05;;;;;;;5.60;100.00;97390.03;10447732;28;20450;-77
2021/12/24 18:02:40;;;;;;;32.42;18.23;;;;;;;5.54;100.00;97393.94;10434444;28;20726;-78
2021/12/24 18:07:41;;;;;;;25.20;15.55;;;;;;;5.52;100.00;97369.53;10431728;28;20057;-79
2021/12/24 18:12:42;;;;;;;21.05;14.35;;;;;;;5.59;100.00;97374.38;10432427;28;20053;-78
2021/12/24 18:17:44;;;;;;;22.83;15.25;;;;;;;5.53;100.00;97371.09;10448813;28;20150;-78
2021/12/24 18:22:45;;;;;;;23.38;14.57;;;;;;;5.54;100.00;97367.31;10445714;28;20061;-78
2021/12/24 18:27:49;;;;;;;23.88;15.02;;;;;;;5.50;100.00;97379.69;10446000;28;20060;-79
2021/12/24 18:32:50;;;;;;;24.67;14.27;;;;;;;5.55;100.00;97365.44;10429171;28;20057;-77
2021/12/24 18:42:52;;;;;;;23.23;13.82;;;;;;;5.64;100.00;97363.56;10448806;28;20054;-79
2021/12/24 18:47:53;;;;;;;22.73;14.63;;;;;;;5.67;100.00;97362.97;10432858;28;20064;-78
2021/12/24 18:52:55;;;;;;;20.83;12.38;;;;;;;5.71;100.00;97363.91;10464359;28;20076;-76
2021/12/24 18:57:56;;;;;;;17.60;11.88;;;;;;;5.74;100.00;97360.59;10413231;28;20053;-79
2021/12/24 19:02:56;;;;;;;19.63;11.65;;;;;;;5.75;100.00;97366.69;10456237;28;20069;-78
2021/12/24 19:07:58;;;;;;;18.42;11.80;;;;;;;5.74;100.00;97362.47;10459178;28;20079;-78
2021/12/24 19:12:59;;;;;;;14.90;10.57;;;;;;;5.77;100.00;97364.53;10464382;28;20059;-78
2021/12/24 19:18:02;;;;;;;13.15;9.02;;;;;;;5.80;100.00;97372.66;10394610;28;20064;-76
2021/12/24 19:23:03;;;;;;;;;;;;;;;5.79;100.00;97365.78;10443051;28;20060;-76
2021/12/24 19:28:05;;;;;;;13.82;9.52;;;;;;;5.74;100.00;97373.91;10445812;28;19921;-76
2021/12/24 19:33:05;;;;;;;13.57;9.45;;;;;;;5.78;100.00;97371.41;10452783;28;20048;-79
2021/12/24 19:38:07;;;;;;;16.70;10.32;;;;;;;5.69;100.00;97372.19;10439075;28;20057;-76
2021/12/24 19:43:09;;;;;;;15.93;9.63;;;;;;;5.68;100.00;97367.97;10445829;28;20041;-77
2021/12/24 19:48:10;;;;;;;13.80;9.60;;;;;;;5.65;100.00;97365.91;10454544;28;20045;-79
2021/12/24 19:53:10;;;;;;;16.02;9.98;;;;;;;5.60;100.00;97352.00;10439702;28;20735;-78
2021/12/24 19:58:11;;;;;;;15.52;10.25;;;;;;;5.60;100.00;97354.66;10408281;28;20049;-76
2021/12/24 20:03:12;;;;;;;15.60;10.25;;;;;;;5.58;100.00;97349.66;10446648;28;20048;-77
2021/12/24 20:08:13;;;;;;;17.60;11.77;;;;;;;5.60;100.00;97350.13;10443543;28;20488;-76
2021/12/24 20:13:13;;;;;;;19.52;13.38;;;;;;;5.66;100.00;97361.38;10449365;28;20060;-78
2021/12/24 20:18:15;;;;;;;17.00;12.00;;;;;;;5.69;100.00;97368.75;10435910;28;20115;-77
2021/12/24 20:23:15;;;;;;;16.73;11.25;;;;;;;5.59;100.00;97356.53;10429373;28;20809;-82
2021/12/24 20:28:16;;;;;;;16.55;10.90;;;;;;;5.58;100.00;97356.84;10457337;28;20060;-82
2021/12/24 20:33:17;;;;;;;21.20;13.27;;;;;;;5.52;100.00;97350.09;10470026;28;20503;-78
2021/12/24 20:38:20;;;;;;;22.02;13.38;;;;;;;5.51;100.00;97348.53;10447292;28;20063;-77
2021/12/24 20:43:22;;;;;;;14.45;10.82;;;;;;;5.45;100.00;97353.22;10454099;28;20053;-84
2021/12/24 20:48:24;;;;;;;19.70;12.23;;;;;;;5.44;100.00;97351.66;10435883;28;20064;-78
2021/12/24 20:53:25;;;;;;;17.98;11.88;;;;;;;5.41;100.00;97342.44;10412655;28;20091;-76
2021/12/24 20:58:27;;;;;;;19.00;12.20;;;;;;;5.43;100.00;97352.75;10441136;28;20057;-77
2021/12/24 21:03:28;;;;;;;16.90;11.35;;;;;;;5.41;100.00;97357.63;10439342;28;20061;-77
2021/12/24 21:08:28;;;;;;;17.55;11.48;;;;;;;5.46;100.00;97354.78;10453753;28;20041;-78
2021/12/24 21:13:29;;;;;;;18.52;11.98;;;;;;;5.48;100.00;97351.81;10448975;28;20132;-76
2021/12/24 21:18:30;;;;;;;16.10;10.90;;;;;;;5.43;100.00;97355.41;10458513;28;20049;-79
2021/12/24 21:23:34;;;;;;;19.20;11.57;;;;;;;5.39;100.00;97357.13;10437961;28;20060;-79
2021/12/24 21:28:37;;;;;;;15.77;10.93;;;;;;;5.28;100.00;97350.53;10455021;28;20416;-78
2021/12/24 21:33:38;;;;;;;16.25;10.63;;;;;;;5.25;100.00;97348.50;10439081;28;20184;-77
2021/12/24 21:38:39;;;;;;;16.48;11.10;;;;;;;5.22;100.00;97349.91;10439188;28;20059;-77
2021/12/24 21:43:41;;;;;;;16.63;11.50;;;;;;;5.26;100.00;97337.56;10473662;28;20128;-81
2021/12/24 21:48:42;;;;;;;14.30;10.32;;;;;;;5.28;100.00;97345.22;10446370;28;20064;-78
2021/12/24 21:53:43;;;;;;;15.10;9.75;;;;;;;5.41;100.00;97342.44;10480947;28;20062;-81
2021/12/24 21:58:47;;;;;;;16.63;10.73;;;;;;;5.50;100.00;97344.31;10495184;28;20044;-80
2021/12/24 22:03:54;;;;;;;17.67;10.90;;;;;;;5.47;100.00;97343.03;10475882;28;20057;-78
2021/12/24 22:08:56;;;;;;;14.82;10.00;;;;;;;5.47;100.00;97347.59;10470339;28;20107;-79
2021/12/24 22:13:59;;;;;;;14.02;9.93;;;;;;;5.49;100.00;97350.75;10482425;28;20033;-78
2021/12/24 22:19:02;;;;;;;14.68;9.10;;;;;;;5.49;100.00;97348.88;10452845;28;20052;-79
2021/12/24 22:24:05;;;;;;;13.88;9.50;;;;;;;5.45;100.00;97350.56;10440759;28;20110;-81
2021/12/24 22:29:19;;;;;;;13.15;8.63;;;;;;;5.45;100.00;97353.22;10458062;28;20049;-80
2021/12/24 22:34:23;;;;;;;15.00;9.55;;;;;;;5.47;100.00;97347.59;10465072;28;20251;-84
2021/12/24 22:39:24;;;;;;;14.18;9.52;;;;;;;5.43;100.00;97352.75;10483173;28;20056;-81
2021/12/24 22:44:25;;;;;;;16.50;10.15;;;;;;;5.45;100.00;97345.25;10489345;28;20109;-81
2021/12/24 22:49:25;;;;;;;15.15;10.13;;;;;;;5.41;100.00;97347.75;10476646;28;20049;-84
2021/12/24 22:54:31;;;;;;;16.42;10.50;;;;;;;5.45;100.00;97353.22;10484945;28;20068;-82
2021/12/24 22:59:32;;;;;;;18.42;10.75;;;;;;;5.50;100.00;97349.66;10485260;28;20087;-81
2021/12/24 23:04:33;;;;;;;16.15;9.57;;;;;;;5.43;100.00;97355.41;10467934;28;20045;-78
2021/12/24 23:09:33;;;;;;;17.20;11.15;;;;;;;5.43;100.00;97363.41;10469863;28;20053;-79
2021/12/24 23:14:34;;;;;;;15.00;9.82;;;;;;;5.41;100.00;97353.06;10463577;28;20064;-79
2021/12/24 23:19:35;;;;;;;16.55;10.35;;;;;;;5.32;100.00;97359.47;10488786;28;20053;-78
2021/12/24 23:24:36;;;;;;;16.48;10.43;;;;;;;5.27;100.00;97341.00;10436282;28;20049;-79
2021/12/24 23:29:36;;;;;;;13.20;8.82;;;;;;;5.09;100.00;97338.31;10446460;28;20096;-79
2021/12/24 23:34:39;;;;;;;16.67;10.85;;;;;;;5.09;100.00;97346.28;10446144;28;20056;-82
2021/12/24 23:39:39;;;;;;;16.17;9.75;;;;;;;5.13;100.00;97343.81;10454508;28;20057;-81
2021/12/24 23:44:44;;;;;;;19.13;10.35;;;;;;;5.10;100.00;97345.19;10458401;28;20065;-80
2021/12/24 23:49:44;;;;;;;17.50;10.95;;;;;;;5.15;100.00;97354.91;10458508;28;21418;-79
2021/12/24 23:54:47;;;;;;;15.57;9.43;;;;;;;5.10;100.00;97339.88;10477986;28;20045;-79
2021/12/24 23:59:48;;;;;;;;;;;;;;;5.06;100.00;97346.13;10463426;28;20053;-80
